Time;durP1;ratioP1;P1;durP2;ratioP2;P2;SDS_P1;SDS_P2;PMS_P1;PMS_P2;Temp;Humidity;BMP_temperature;BMP_pressure;BME280_temperature;BME280_humidity;BME280_pressure;Samples;Min_cycle;Max_cycle;Signal;HPM_P1;HPM_P2
2022/12/03 00:00:44;;;;;;;3.75;1.00;;;20.70;99.90;;;;;;5021073;28;20187;-83
2022/12/03 00:03:15;;;;;;;8.63;1.08;;;20.80;99.90;;;;;;5024210;28;20203;-81
2022/12/03 00:05:47;;;;;;;2.60;0.77;;;20.80;99.90;;;;;;5027149;28;20189;-82
2022/12/03 00:08:18;;;;;;;2.92;0.90;;;20.90;99.90;;;;;;5020936;28;20277;-81
2022/12/03 00:10:49;;;;;;;5.57;0.82;;;20.90;99.90;;;;;;5024665;28;20199;-81
2022/12/03 00:13:20;;;;;;;3.72;1.10;;;21.00;99.90;;;;;;5021638;28;20189;-81
2022/12/03 00:15:50;;;;;;;3.55;0.98;;;21.00;99.90;;;;;;5021908;28;20195;-80
2022/12/03 00:18:21;;;;;;;3.13;0.70;;;21.10;99.90;;;;;;5021350;28;20211;-82
2022/12/03 00:20:54;;;;;;;3.40;1.02;;;21.10;99.90;;;;;;5020893;28;20194;-80
2022/12/03 00:23:25;;;;;;;2.80;0.70;;;21.10;99.90;;;;;;5025076;28;20193;-80
2022/12/03 00:25:55;;;;;;;4.90;1.00;;;21.20;99.90;;;;;;5018568;28;20187;-82
2022/12/03 00:28:26;;;;;;;3.85;1.02;;;21.30;99.90;;;;;;5021860;28;20685;-79
2022/12/03 00:30:57;;;;;;;3.38;1.10;;;21.60;99.90;;;;;;5025610;28;20190;-77
2022/12/03 00:33:28;;;;;;;2.10;1.27;;;21.70;99.90;;;;;;5025075;28;20240;-79
2022/12/03 00:36:03;;;;;;;4.10;1.20;;;21.90;99.90;;;;;;5018604;28;20228;-79
2022/12/03 00:38:34;;;;;;;1.73;0.60;;;22.20;99.90;;;;;;5016086;28;20237;-80
2022/12/03 00:41:04;;;;;;;2.78;0.82;;;22.50;99.90;;;;;;5020343;28;20208;-79
2022/12/03 00:43:35;;;;;;;4.05;1.10;;;22.60;99.90;;;;;;5014598;28;20202;-79
2022/12/03 00:46:06;;;;;;;2.72;0.95;;;22.60;99.90;;;;;;5022353;28;20198;-80
2022/12/03 00:48:37;;;;;;;2.50;0.88;;;22.60;99.90;;;;;;5025593;28;20208;-78
2022/12/03 00:51:10;;;;;;;3.67;0.80;;;22.50;99.90;;;;;;5019737;28;20198;-79
2022/12/03 00:53:40;;;;;;;4.18;0.80;;;22.60;99.90;;;;;;5024274;28;20193;-79
2022/12/03 00:56:12;;;;;;;6.30;0.90;;;22.90;99.90;;;;;;5024661;28;20194;-79
2022/12/03 00:58:42;;;;;;;4.45;0.85;;;23.40;99.90;;;;;;5023001;28;20276;-79
2022/12/03 01:01:13;;;;;;;6.05;1.08;;;23.50;99.90;;;;;;5022027;28;20201;-79
2022/12/03 01:03:44;;;;;;;4.60;0.90;;;23.30;99.90;;;;;;5023812;28;20633;-79
2022/12/03 01:06:17;;;;;;;6.20;0.90;;;23.10;99.90;;;;;;5013657;28;20210;-80
2022/12/03 01:08:48;;;;;;;3.92;0.98;;;22.90;99.90;;;;;;5020919;28;20186;-83
2022/12/03 01:14:05;;;;;;;5.57;0.93;;;22.60;99.90;;;;;;5016298;28;20660;-80
2022/12/03 01:16:36;;;;;;;6.65;1.10;;;22.60;99.90;;;;;;5024843;28;20234;-79
2022/12/03 01:19:09;;;;;;;8.23;2.05;;;22.80;99.90;;;;;;5021861;28;20210;-84
2022/12/03 01:21:41;;;;;;;3.83;1.02;;;23.10;99.90;;;;;;5022281;28;20194;-80
2022/12/03 01:24:13;;;;;;;3.97;0.95;;;23.40;99.90;;;;;;5023044;28;20194;-80
2022/12/03 01:26:43;;;;;;;6.47;1.05;;;23.40;99.90;;;;;;5016762;28;20684;-83
2022/12/03 01:29:14;;;;;;;6.72;0.80;;;23.60;99.90;;;;;;5022313;28;20576;-80
2022/12/03 01:34:31;;;;;;;4.18;1.00;;;23.90;99.90;;;;;;5026860;28;20256;-80
2022/12/03 01:37:04;;;;;;;3.90;0.88;;;23.80;99.90;;;;;;5019083;28;20230;-82
2022/12/03 01:39:35;;;;;;;6.05;0.90;;;23.60;99.90;;;;;;5021939;28;20194;-80
2022/12/03 01:42:07;;;;;;;1.65;0.73;;;23.30;99.90;;;;;;5018307;28;20201;-82
2022/12/03 01:44:40;;;;;;;3.67;0.80;;;23.00;99.90;;;;;;5026322;28;20196;-82
2022/12/03 01:47:16;;;;;;;5.70;0.82;;;22.90;99.90;;;;;;5019818;28;20654;-81
2022/12/03 01:49:50;;;;;;;3.72;1.00;;;23.10;99.90;;;;;;5029220;28;20202;-81
2022/12/03 01:52:26;;;;;;;3.13;0.60;;;23.60;99.90;;;;;;5025741;28;20242;-86
2022/12/03 01:54:58;;;;;;;3.20;0.80;;;23.80;99.90;;;;;;5027620;28;20194;-82
2022/12/03 01:57:31;;;;;;;2.45;0.80;;;24.10;99.90;;;;;;5025921;28;20210;-82
2022/12/03 02:00:08;;;;;;;4.53;0.80;;;24.40;99.90;;;;;;5025396;28;20277;-85
2022/12/03 02:02:40;;;;;;;2.85;0.60;;;24.70;99.90;;;;;;5018314;28;20563;-84
2022/12/03 02:05:19;;;;;;;2.28;0.70;;;24.80;99.90;;;;;;5022777;28;20183;-81
2022/12/03 02:07:53;;;;;;;2.13;0.82;;;24.70;99.90;;;;;;5024376;28;20190;-82
2022/12/03 02:10:27;;;;;;;3.20;0.90;;;24.70;99.90;;;;;;5030648;28;20196;-81
2022/12/03 02:13:02;;;;;;;2.45;0.93;;;24.40;99.90;;;;;;5019683;28;20533;-81
2022/12/03 02:15:33;;;;;;;3.88;0.77;;;24.00;99.90;;;;;;5027808;28;20189;-83
2022/12/03 02:18:07;;;;;;;2.78;0.70;;;23.70;99.90;;;;;;5021827;28;20298;-89
2022/12/03 02:20:45;;;;;;;2.53;0.60;;;23.30;99.90;;;;;;5024153;28;20601;-81
2022/12/03 02:23:28;;;;;;;2.90;0.80;;;23.00;99.90;;;;;;5022794;28;20273;-81
2022/12/03 02:26:01;;;;;;;5.03;1.10;;;22.80;99.90;;;;;;5021295;28;20194;-91
2022/12/03 02:28:31;;;;;;;4.03;1.00;;;22.70;99.90;;;;;;5018217;28;20551;-82
2022/12/03 02:31:04;;;;;;;2.45;0.70;;;22.80;99.90;;;;;;5021338;28;20190;-82
2022/12/03 02:33:35;;;;;;;4.35;0.82;;;22.80;99.90;;;;;;5017786;28;20190;-80
2022/12/03 02:36:06;;;;;;;4.53;0.65;;;23.10;99.90;;;;;;5015375;28;20206;-81
2022/12/03 02:38:37;;;;;;;2.22;0.80;;;23.30;99.90;;;;;;5031213;28;20248;-79
2022/12/03 02:42:33;;;;;;;3.20;0.60;;;23.70;99.90;;;;;;5016170;28;20197;-80
2022/12/03 02:44:06;;;;;;;5.40;0.75;;;23.70;99.90;;;;;;5008724;28;20245;-79
2022/12/03 02:46:37;;;;;;;2.92;0.80;;;23.40;99.90;;;;;;5024934;28;20193;-81
2022/12/03 02:49:09;;;;;;;3.60;0.73;;;23.10;99.90;;;;;;5023348;28;20212;-80
2022/12/03 02:51:40;;;;;;;2.17;0.80;;;22.80;99.90;;;;;;5019025;28;20550;-81
2022/12/03 02:54:11;;;;;;;3.25;0.70;;;22.50;99.90;;;;;;5013056;28;20282;-83
2022/12/03 02:56:44;;;;;;;3.42;0.80;;;22.40;99.90;;;;;;5019210;28;20257;-81
2022/12/03 02:59:15;;;;;;;3.03;1.00;;;22.60;99.90;;;;;;5015688;28;20215;-79
2022/12/03 03:01:46;;;;;;;5.32;0.70;;;23.10;99.90;;;;;;5026352;28;20535;-77
2022/12/03 03:04:17;;;;;;;2.38;0.73;;;23.40;99.90;;;;;;5018113;28;20720;-77
2022/12/03 03:06:48;;;;;;;3.80;0.90;;;23.10;99.90;;;;;;5014999;28;20281;-79
2022/12/03 03:09:20;;;;;;;2.92;0.70;;;22.80;99.90;;;;;;5023141;28;20268;-78
2022/12/03 03:11:52;;;;;;;3.42;0.80;;;22.60;99.90;;;;;;5029026;28;20213;-80
2022/12/03 03:14:23;;;;;;;5.82;0.93;;;22.60;99.90;;;;;;5025251;28;20197;-79
2022/12/03 03:16:55;;;;;;;3.25;0.88;;;22.90;99.90;;;;;;5028660;28;20190;-80
2022/12/03 03:19:27;;;;;;;4.13;0.70;;;23.10;99.90;;;;;;5025871;28;20699;-78
2022/12/03 03:21:58;;;;;;;2.35;0.80;;;23.30;99.90;;;;;;5019831;28;20206;-80
2022/12/03 03:24:29;;;;;;;6.72;0.95;;;23.40;99.90;;;;;;5024559;28;20287;-81
2022/12/03 03:27:02;;;;;;;2.67;0.85;;;23.60;99.90;;;;;;5020799;28;20275;-82
2022/12/03 03:29:33;;;;;;;2.30;0.70;;;23.60;99.90;;;;;;5013604;28;20199;-77
2022/12/03 03:32:05;;;;;;;3.60;0.70;;;23.60;99.90;;;;;;5018065;28;20197;-82
2022/12/03 03:34:37;;;;;;;3.05;0.75;;;23.40;99.90;;;;;;5010888;28;20206;-82
2022/12/03 03:37:08;;;;;;;4.05;0.60;;;23.40;99.90;;;;;;5009052;28;20203;-77
2022/12/03 03:39:39;;;;;;;3.33;1.10;;;23.50;99.90;;;;;;5012115;28;20531;-79
2022/12/03 03:42:11;;;;;;;5.18;1.00;;;23.40;99.90;;;;;;5008870;28;20199;-81
2022/12/03 03:44:42;;;;;;;6.30;1.00;;;23.50;99.90;;;;;;5013660;28;20203;-82
2022/12/03 03:47:13;;;;;;;2.38;0.73;;;23.40;99.90;;;;;;5005036;28;20567;-81
2022/12/03 03:49:46;;;;;;;2.78;0.90;;;23.20;99.90;;;;;;5007620;28;20210;-80
2022/12/03 03:52:17;;;;;;;3.72;0.90;;;23.20;99.90;;;;;;5009008;28;20203;-78
2022/12/03 03:54:51;;;;;;;2.75;0.60;;;23.10;99.90;;;;;;5009635;28;20214;-80
2022/12/03 03:57:25;;;;;;;2.60;0.93;;;23.00;99.90;;;;;;5011222;28;20671;-78
2022/12/03 03:59:56;;;;;;;2.15;0.73;;;23.00;99.90;;;;;;5011896;28;20559;-76
2022/12/03 04:02:29;;;;;;;2.88;0.60;;;23.00;99.90;;;;;;5010302;28;20282;-80
2022/12/03 04:05:00;;;;;;;1.25;0.52;;;22.90;99.90;;;;;;5009509;28;20288;-78
2022/12/03 04:07:30;;;;;;;2.63;0.70;;;23.00;99.90;;;;;;5010850;28;20199;-81
2022/12/03 04:12:54;;;;;;;4.00;0.80;;;23.10;99.90;;;;;;5014906;28;20194;-80
2022/12/03 04:12:55;;;;;;;3.90;1.00;;;23.10;99.90;;;;;;5023354;28;20206;-82
2022/12/03 04:15:26;;;;;;;5.80;0.60;;;23.20;99.90;;;;;;5012965;28;20191;-77
2022/12/03 04:20:44;;;;;;;1.83;0.50;;;23.10;99.90;;;;;;5013763;28;20201;-79
2022/12/03 04:23:13;;;;;;;2.17;0.65;;;23.00;99.90;;;;;;5029236;28;20190;-77
2022/12/03 04:28:51;;;;;;;1.77;0.60;;;23.00;99.90;;;;;;5011646;28;20197;-77
2022/12/03 04:36:55;;;;;;;4.07;0.80;;;22.80;99.90;;;;;;5027863;28;20661;-79
2022/12/03 04:39:25;;;;;;;2.00;0.70;;;22.70;99.90;;;;;;5013964;28;20219;-84
2022/12/03 04:41:56;;;;;;;2.80;0.80;;;22.60;99.90;;;;;;5013779;28;20269;-77
2022/12/03 04:44:35;;;;;;;1.98;0.60;;;22.50;99.90;;;;;;5029370;28;20199;-77
2022/12/03 04:47:08;;;;;;;2.88;0.75;;;22.50;99.90;;;;;;5013415;28;20223;-85
2022/12/03 04:49:39;;;;;;;4.25;0.70;;;22.60;99.90;;;;;;5019819;28;20198;-77
2022/12/03 04:52:11;;;;;;;2.95;0.57;;;22.70;99.90;;;;;;5028282;28;20557;-79
2022/12/03 04:54:42;;;;;;;2.58;0.80;;;22.80;99.90;;;;;;5006452;28;20187;-78
2022/12/03 04:57:13;;;;;;;6.00;0.70;;;22.80;99.90;;;;;;5021145;28;20560;-79
2022/12/03 04:59:46;;;;;;;3.47;0.80;;;22.60;99.90;;;;;;5008481;28;20218;-78
2022/12/03 05:02:17;;;;;;;3.33;0.60;;;22.60;99.90;;;;;;5021821;28;20198;-81
2022/12/03 05:04:48;;;;;;;2.75;0.70;;;22.60;99.90;;;;;;5027845;28;20191;-80
2022/12/03 05:07:18;;;;;;;2.53;0.65;;;22.60;99.90;;;;;;5013387;28;20579;-78
2022/12/03 05:09:49;;;;;;;2.42;0.50;;;22.50;99.90;;;;;;5006321;28;20187;-79
2022/12/03 05:12:20;;;;;;;2.33;0.68;;;22.50;99.90;;;;;;5020891;28;20191;-80
2022/12/03 05:14:52;;;;;;;1.35;0.45;;;22.50;99.90;;;;;;5015450;28;20197;-81
2022/12/03 05:17:23;;;;;;;2.10;0.70;;;22.60;99.90;;;;;;5025725;28;20226;-81
2022/12/03 05:22:40;;;;;;;3.25;0.63;;;22.50;99.90;;;;;;5013362;28;20210;-79
2022/12/03 05:25:12;;;;;;;1.83;0.60;;;22.50;99.90;;;;;;5011907;28;20250;-79
2022/12/03 05:27:42;;;;;;;4.03;0.70;;;22.60;99.90;;;;;;5020530;28;20217;-83
2022/12/03 05:30:16;;;;;;;2.25;0.60;;;22.60;99.90;;;;;;5028242;28;20290;-82
2022/12/03 05:32:47;;;;;;;2.65;0.73;;;22.50;99.90;;;;;;5013047;28;20194;-78
2022/12/03 05:35:18;;;;;;;2.72;0.63;;;22.50;99.90;;;;;;5015746;28;20187;-78
2022/12/03 05:37:49;;;;;;;1.65;0.70;;;22.40;99.90;;;;;;5012968;28;20234;-79
2022/12/03 05:40:20;;;;;;;1.67;0.60;;;22.40;99.90;;;;;;5017013;28;20195;-80
2022/12/03 05:42:56;;;;;;;1.40;0.60;;;22.50;99.90;;;;;;5014296;28;20201;-80
2022/12/03 05:45:30;;;;;;;2.25;0.80;;;22.50;99.90;;;;;;5021139;28;20195;-80
2022/12/03 05:48:02;;;;;;;1.75;0.70;;;22.40;99.90;;;;;;5021897;28;20663;-82
2022/12/03 05:50:35;;;;;;;2.22;0.70;;;22.30;99.90;;;;;;5015526;28;20203;-80
2022/12/03 05:53:06;;;;;;;3.92;0.68;;;22.30;99.90;;;;;;5024283;28;20224;-79
2022/12/03 05:55:37;;;;;;;2.97;1.00;;;22.40;99.90;;;;;;5012271;28;20222;-79
2022/12/03 05:58:08;;;;;;;3.55;0.88;;;22.30;99.90;;;;;;5007042;28;20309;-81
2022/12/03 06:00:41;;;;;;;2.75;0.60;;;22.30;99.90;;;;;;5025134;28;20274;-80
2022/12/03 06:03:12;;;;;;;1.52;0.77;;;22.30;99.90;;;;;;5014643;28;20190;-81
2022/12/03 06:05:43;;;;;;;1.67;0.70;;;22.40;99.90;;;;;;5020492;28;20272;-80
2022/12/03 06:08:14;;;;;;;2.35;0.90;;;22.40;99.90;;;;;;5016710;28;20202;-80
2022/12/03 06:10:45;;;;;;;3.22;0.80;;;22.40;99.90;;;;;;5017897;28;20211;-80
2022/12/03 06:13:16;;;;;;;3.13;0.82;;;22.40;99.90;;;;;;5011298;28;20689;-81
2022/12/03 06:15:48;;;;;;;3.67;0.52;;;22.30;99.90;;;;;;5013434;28;20199;-80
2022/12/03 06:18:19;;;;;;;3.28;0.80;;;22.30;99.90;;;;;;5015648;28;20218;-82
2022/12/03 06:20:50;;;;;;;2.42;0.70;;;22.20;99.90;;;;;;5024491;28;20198;-81
2022/12/03 06:23:21;;;;;;;1.10;0.73;;;22.10;99.90;;;;;;5019809;28;20559;-79
2022/12/03 06:25:52;;;;;;;2.55;0.80;;;22.00;99.90;;;;;;5019095;28;20208;-84
2022/12/03 06:28:23;;;;;;;2.05;0.80;;;22.10;99.90;;;;;;5016649;28;20244;-78
2022/12/03 06:30:55;;;;;;;2.38;0.77;;;22.10;99.90;;;;;;5021087;28;20204;-78
2022/12/03 06:33:31;;;;;;;0.55;0.50;;;22.10;99.90;;;;;;5014022;28;20565;-79
2022/12/03 06:36:02;;;;;;;1.73;0.40;;;22.20;99.90;;;;;;5018527;28;20190;-77
2022/12/03 06:38:33;;;;;;;4.38;0.90;;;22.20;99.90;;;;;;5020104;28;20694;-78
2022/12/03 06:41:03;;;;;;;2.67;0.70;;;22.20;99.90;;;;;;5015982;28;20183;-79
2022/12/03 06:43:34;;;;;;;2.35;0.73;;;22.10;99.90;;;;;;5008558;28;20565;-78
2022/12/03 06:46:07;;;;;;;1.75;0.75;;;21.90;99.90;;;;;;5017172;28;20218;-79
2022/12/03 06:48:38;;;;;;;2.60;0.77;;;21.90;99.90;;;;;;5016917;28;20203;-79
2022/12/03 06:51:09;;;;;;;2.13;0.80;;;21.90;99.90;;;;;;5014775;28;20210;-81
2022/12/03 06:53:40;;;;;;;2.53;0.70;;;21.90;99.90;;;;;;5027543;28;20226;-80
2022/12/03 06:56:11;;;;;;;2.17;0.70;;;21.90;99.90;;;;;;5018658;28;20204;-80
2022/12/03 06:58:41;;;;;;;2.65;0.80;;;21.80;99.90;;;;;;5016465;28;20214;-83
2022/12/03 07:01:14;;;;;;;1.80;0.70;;;21.80;99.90;;;;;;5028116;28;20203;-78
2022/12/03 07:03:45;;;;;;;3.35;0.90;;;21.80;99.90;;;;;;5008435;28;20187;-81
2022/12/03 07:06:16;;;;;;;3.72;0.80;;;21.80;99.90;;;;;;5014298;28;20290;-79
2022/12/03 07:08:47;;;;;;;2.67;0.70;;;21.70;99.90;;;;;;5018664;28;20221;-81
2022/12/03 07:11:38;;;;;;;1.40;0.70;;;21.60;99.90;;;;;;5027430;28;20193;-81
2022/12/03 07:14:11;;;;;;;2.17;0.80;;;21.60;99.90;;;;;;5027137;28;20198;-81
2022/12/03 07:16:43;;;;;;;2.10;0.77;;;21.50;99.90;;;;;;5032015;28;20253;-81
2022/12/03 07:19:14;;;;;;;2.17;0.88;;;21.50;99.90;;;;;;5023460;28;20210;-81
2022/12/03 07:21:45;;;;;;;1.73;0.60;;;21.40;99.90;;;;;;5025084;28;20187;-78
2022/12/03 07:24:16;;;;;;;1.88;0.60;;;21.30;99.90;;;;;;5024017;28;20638;-79
2022/12/03 07:26:47;;;;;;;2.05;0.80;;;21.30;99.90;;;;;;5024754;28;20194;-80
2022/12/03 07:29:17;;;;;;;3.20;0.75;;;21.30;99.90;;;;;;5032412;28;20187;-81
2022/12/03 07:31:50;;;;;;;1.77;0.77;;;21.20;99.90;;;;;;5024287;28;20191;-78
2022/12/03 07:34:21;;;;;;;1.83;1.00;;;21.20;99.90;;;;;;5024895;28;20673;-79
2022/12/03 07:36:52;;;;;;;2.45;0.82;;;21.20;99.90;;;;;;5012199;28;20203;-79
2022/12/03 07:39:22;;;;;;;3.80;0.98;;;21.20;99.90;;;;;;5012156;28;20709;-80
2022/12/03 07:41:53;;;;;;;1.70;1.00;;;21.30;99.90;;;;;;5017269;28;20195;-82
2022/12/03 07:44:24;;;;;;;3.83;1.00;;;21.30;99.90;;;;;;5013001;28;20746;-80
2022/12/03 07:46:57;;;;;;;1.85;0.70;;;21.40;99.90;;;;;;5020557;28;20574;-80
2022/12/03 07:49:27;;;;;;;3.00;1.08;;;21.40;99.90;;;;;;5021026;28;20202;-79
2022/12/03 07:51:58;;;;;;;2.38;0.70;;;21.50;99.90;;;;;;5019278;28;20714;-80
2022/12/03 07:54:29;;;;;;;2.00;0.70;;;21.50;99.90;;;;;;5022162;28;20662;-80
2022/12/03 07:57:00;;;;;;;3.10;0.80;;;21.40;99.90;;;;;;5023421;28;20628;-79
2022/12/03 07:59:30;;;;;;;1.80;0.82;;;21.30;99.90;;;;;;5026990;28;20697;-80
2022/12/03 08:02:03;;;;;;;2.75;0.95;;;21.30;99.90;;;;;;5019232;28;20191;-78
2022/12/03 08:04:34;;;;;;;3.63;1.08;;;21.20;99.90;;;;;;5020020;28;20202;-79
2022/12/03 08:07:05;;;;;;;3.15;1.33;;;21.10;99.90;;;;;;5018138;28;20195;-80
2022/12/03 08:09:35;;;;;;;3.35;1.00;;;21.10;99.90;;;;;;5029151;28;20191;-79
2022/12/03 08:12:16;;;;;;;4.57;1.00;;;21.10;99.90;;;;;;5022252;28;20209;-79
2022/12/03 08:14:47;;;;;;;1.42;0.80;;;21.10;99.90;;;;;;5026987;28;20544;-80
2022/12/03 08:17:20;;;;;;;3.50;1.02;;;21.00;99.90;;;;;;5030491;28;20206;-80
2022/12/03 08:19:51;;;;;;;1.90;0.88;;;21.00;99.90;;;;;;5021575;28;20217;-80
2022/12/03 08:22:22;;;;;;;2.25;0.80;;;20.80;99.90;;;;;;5026958;28;20201;-80
2022/12/03 08:25:14;;;;;;;3.03;0.93;;;20.80;99.90;;;;;;4987678;28;20610;-80
2022/12/03 08:27:45;;;;;;;2.15;0.60;;;20.70;99.90;;;;;;5015928;28;20190;-78
2022/12/03 08:30:19;;;;;;;2.63;1.15;;;20.60;99.90;;;;;;5017216;28;20206;-79
2022/12/03 08:32:52;;;;;;;3.33;1.25;;;20.60;99.90;;;;;;5022576;28;20197;-78
2022/12/03 08:35:26;;;;;;;2.28;1.08;;;20.50;99.90;;;;;;5017162;28;20713;-78
2022/12/03 08:38:02;;;;;;;1.85;0.82;;;20.40;99.90;;;;;;5013947;28;20309;-78
2022/12/03 08:40:37;;;;;;;2.05;1.02;;;20.30;99.90;;;;;;5018969;28;20228;-79
2022/12/03 08:43:17;;;;;;;4.80;1.33;;;20.20;99.90;;;;;;5021919;28;20281;-81
2022/12/03 08:45:48;;;;;;;4.60;1.10;;;20.10;99.90;;;;;;5021567;28;20633;-79
2022/12/03 08:48:31;;;;;;;5.18;1.50;;;20.00;99.90;;;;;;5012995;28;20209;-79
2022/12/03 08:51:05;;;;;;;2.95;1.13;;;20.00;99.90;;;;;;5019842;28;20195;-78
2022/12/03 08:53:37;;;;;;;3.35;1.05;;;20.00;99.90;;;;;;5020529;28;20232;-79
2022/12/03 08:56:18;;;;;;;6.20;0.90;;;19.90;99.90;;;;;;5021382;28;20672;-78
2022/12/03 08:58:50;;;;;;;3.40;1.75;;;19.90;99.90;;;;;;5019911;28;20187;-79
2022/12/03 09:01:35;;;;;;;4.65;2.58;;;19.80;99.90;;;;;;5024141;28;20603;-78
2022/12/03 09:04:27;;;;;;;3.80;2.00;;;19.80;99.90;;;;;;5015333;28;20283;-79
2022/12/03 09:06:59;;;;;;;4.95;1.60;;;19.80;99.90;;;;;;5018308;28;20186;-80
2022/12/03 09:09:30;;;;;;;6.30;1.80;;;19.70;99.90;;;;;;5021950;28;20229;-80
2022/12/03 09:12:00;;;;;;;5.13;2.00;;;19.70;99.90;;;;;;5018429;28;20209;-79
2022/12/03 09:14:31;;;;;;;5.50;2.17;;;19.70;99.90;;;;;;5023253;28;20199;-79
2022/12/03 09:17:02;;;;;;;6.65;2.97;;;19.60;99.90;;;;;;5025466;28;20198;-80
2022/12/03 09:19:35;;;;;;;7.72;4.70;;;19.60;99.90;;;;;;5019868;28;20210;-78
2022/12/03 09:22:05;;;;;;;9.13;4.90;;;19.60;99.90;;;;;;5018242;28;20203;-80
2022/12/03 09:24:36;;;;;;;7.90;4.70;;;19.50;99.90;;;;;;5024497;28;20195;-79
2022/12/03 09:27:07;;;;;;;10.27;4.07;;;19.50;99.90;;;;;;5019876;28;20286;-80
2022/12/03 09:29:38;;;;;;;5.95;3.15;;;19.50;99.90;;;;;;5026254;28;20190;-79
2022/12/03 09:32:09;;;;;;;5.13;1.40;;;19.50;99.90;;;;;;5020078;28;20560;-79
2022/12/03 09:34:41;;;;;;;4.38;1.58;;;19.50;99.90;;;;;;5017847;28;20201;-79
2022/12/03 09:37:12;;;;;;;4.32;1.60;;;19.50;99.90;;;;;;5020805;28;20244;-79
2022/12/03 09:39:43;;;;;;;6.90;1.60;;;19.40;99.90;;;;;;5018783;28;20225;-79
2022/12/03 09:42:14;;;;;;;3.05;1.15;;;19.40;99.90;;;;;;5016157;28;20209;-81
2022/12/03 09:44:45;;;;;;;2.67;1.13;;;19.40;99.90;;;;;;5022056;28;20253;-78
2022/12/03 09:47:16;;;;;;;2.47;1.08;;;19.40;99.90;;;;;;5021150;28;20195;-78
2022/12/03 09:49:49;;;;;;;3.67;1.23;;;19.40;99.90;;;;;;5025618;28;20199;-78
2022/12/03 09:52:27;;;;;;;2.75;1.08;;;19.40;99.90;;;;;;5022531;28;20195;-77
2022/12/03 09:54:58;;;;;;;4.80;1.20;;;19.40;99.90;;;;;;5028595;28;20194;-77
2022/12/03 09:57:29;;;;;;;2.13;0.98;;;19.30;99.90;;;;;;5030636;28;20199;-78
2022/12/03 10:00:00;;;;;;;5.10;1.15;;;19.30;99.90;;;;;;5022548;28;20220;-77
2022/12/03 10:02:33;;;;;;;4.22;1.25;;;19.30;99.90;;;;;;5026659;28;20547;-77
2022/12/03 10:05:05;;;;;;;2.88;0.80;;;19.30;99.90;;;;;;5018450;28;20195;-78
2022/12/03 10:07:36;;;;;;;4.28;1.10;;;19.20;99.90;;;;;;5024244;28;20194;-78
2022/12/03 10:10:08;;;;;;;2.97;0.80;;;19.20;99.90;;;;;;5024692;28;20199;-83
2022/12/03 10:12:39;;;;;;;3.30;0.90;;;19.20;99.90;;;;;;5025570;28;20753;-79
2022/12/03 10:15:14;;;;;;;4.07;1.00;;;19.20;99.90;;;;;;5032548;28;20191;-78
2022/12/03 10:17:45;;;;;;;3.60;0.70;;;19.20;99.90;;;;;;5015654;28;20728;-77
2022/12/03 10:20:23;;;;;;;4.07;0.90;;;19.20;99.90;;;;;;5028721;28;20222;-78
2022/12/03 10:22:54;;;;;;;3.20;1.08;;;19.20;99.90;;;;;;5023705;28;20657;-77
2022/12/03 10:25:25;;;;;;;4.18;1.00;;;19.10;99.90;;;;;;5024012;28;20664;-78
2022/12/03 10:28:00;;;;;;;2.17;0.80;;;19.20;99.90;;;;;;5018084;28;20198;-78
2022/12/03 10:30:31;;;;;;;11.93;8.00;;;19.20;99.90;;;;;;5025460;28;20205;-77
2022/12/03 10:33:12;;;;;;;7.20;2.75;;;19.10;99.90;;;;;;5020161;28;20565;-78
2022/12/03 10:35:45;;;;;;;2.88;0.95;;;19.20;99.90;;;;;;5023360;28;20190;-78
2022/12/03 10:38:23;;;;;;;2.75;0.70;;;19.10;99.90;;;;;;5017207;28;20701;-78
2022/12/03 10:40:54;;;;;;;8.02;1.55;;;19.10;99.90;;;;;;5009820;28;20226;-78
2022/12/03 10:43:25;;;;;;;4.82;1.02;;;19.10;99.90;;;;;;5018703;28;20225;-78
2022/12/03 10:46:14;;;;;;;1.52;0.75;;;19.10;99.90;;;;;;5008697;28;20214;-77
2022/12/03 10:48:45;;;;;;;4.22;0.77;;;19.00;99.90;;;;;;5016670;28;20662;-77
2022/12/03 10:51:22;;;;;;;2.58;0.65;;;19.00;99.90;;;;;;5022963;28;20662;-77
2022/12/03 10:53:53;;;;;;;1.92;0.80;;;19.00;99.90;;;;;;5021437;28;20670;-77
2022/12/03 10:56:27;;;;;;;2.22;0.82;;;19.00;99.90;;;;;;5023084;28;20666;-78
2022/12/03 10:58:58;;;;;;;1.77;0.52;;;19.00;99.90;;;;;;5016002;28;20250;-77
2022/12/03 11:01:29;;;;;;;4.13;0.82;;;19.00;99.90;;;;;;5027459;28;20640;-77
2022/12/03 11:04:05;;;;;;;4.50;0.90;;;19.00;99.90;;;;;;5017868;28;20187;-76
2022/12/03 11:06:38;;;;;;;3.00;0.70;;;19.00;99.90;;;;;;5026295;28;20778;-77
2022/12/03 11:09:18;;;;;;;2.58;0.70;;;19.00;99.90;;;;;;5019718;28;20190;-77
2022/12/03 11:11:49;;;;;;;2.30;0.88;;;19.00;99.90;;;;;;5007887;28;20553;-78
2022/12/03 11:14:52;;;;;;;1.67;0.68;;;19.00;99.90;;;;;;5022268;28;20221;-77
2022/12/03 11:17:50;;;;;;;0.82;0.50;;;18.90;99.90;;;;;;5018320;28;20199;-78
2022/12/03 11:20:52;;;;;;;5.45;0.85;;;18.90;99.90;;;;;;4999401;28;20240;-77
2022/12/03 11:24:17;;;;;;;3.33;0.80;;;18.90;99.90;;;;;;5016517;28;20208;-77
2022/12/03 11:27:22;;;;;;;2.63;0.75;;;18.90;99.90;;;;;;5018325;28;20206;-77
2022/12/03 11:30:01;;;;;;;2.17;0.75;;;18.90;99.90;;;;;;5018208;28;20212;-77
2022/12/03 11:33:10;;;;;;;3.65;0.90;;;18.90;99.90;;;;;;5019036;28;20183;-77
2022/12/03 11:36:12;;;;;;;2.95;0.75;;;18.90;99.90;;;;;;5021502;28;20554;-77
2022/12/03 11:38:50;;;;;;;1.55;0.60;;;18.90;99.90;;;;;;5019445;28;20226;-77
2022/12/03 11:41:22;;;;;;;3.72;0.93;;;18.80;99.90;;;;;;5019257;28;20215;-77
2022/12/03 11:44:20;;;;;;;4.93;0.90;;;18.80;99.90;;;;;;5020706;28;20195;-78
2022/12/03 11:46:51;;;;;;;3.85;1.40;;;18.80;99.90;;;;;;5016952;28;20662;-77
2022/12/03 11:49:47;;;;;;;5.03;0.77;;;18.80;99.90;;;;;;5022093;28;20193;-77
2022/12/03 11:52:31;;;;;;;3.72;0.75;;;18.80;99.90;;;;;;5023258;28;20248;-78
2022/12/03 11:55:07;;;;;;;4.72;0.90;;;18.80;99.90;;;;;;5024138;28;20275;-77
2022/12/03 11:57:42;;;;;;;3.17;0.90;;;18.80;99.90;;;;;;5023700;28;20205;-77
2022/12/03 12:00:24;;;;;;;1.15;0.60;;;18.80;99.90;;;;;;5024100;28;20225;-78
2022/12/03 12:02:56;;;;;;;4.43;0.90;;;18.80;99.90;;;;;;5024741;28;20182;-78
2022/12/03 12:05:31;;;;;;;3.55;0.90;;;18.80;99.90;;;;;;5011963;28;20191;-78
2022/12/03 12:08:03;;;;;;;3.40;0.68;;;18.80;99.90;;;;;;5020141;28;20195;-77
2022/12/03 12:10:47;;;;;;;4.95;0.95;;;18.80;99.90;;;;;;5029616;28;20195;-78
2022/12/03 12:13:45;;;;;;;3.63;0.90;;;18.80;99.90;;;;;;5019591;28;20193;-77
2022/12/03 12:16:36;;;;;;;1.70;0.80;;;18.70;99.90;;;;;;5015291;28;20198;-77
2022/12/03 12:19:33;;;;;;;1.45;0.77;;;18.80;99.90;;;;;;5029707;28;20210;-77
2022/12/03 12:22:19;;;;;;;1.75;0.70;;;18.70;99.90;;;;;;5013959;28;20297;-78
2022/12/03 12:24:52;;;;;;;1.98;0.85;;;18.70;99.90;;;;;;5021440;28;20284;-77
2022/12/03 12:27:31;;;;;;;3.70;0.85;;;18.70;99.90;;;;;;5009628;28;20257;-77
2022/12/03 12:30:03;;;;;;;3.45;0.70;;;18.60;99.90;;;;;;5014017;28;20206;-77
2022/12/03 12:32:35;;;;;;;4.63;0.80;;;18.60;99.90;;;;;;5013931;28;20658;-77
2022/12/03 12:35:17;;;;;;;3.35;0.90;;;18.60;99.90;;;;;;5014896;28;20278;-77
2022/12/03 12:37:52;;;;;;;3.70;0.77;;;18.50;99.90;;;;;;5013382;28;20253;-77
2022/12/03 12:40:25;;;;;;;1.55;0.70;;;18.50;99.90;;;;;;5004574;28;20221;-77
2022/12/03 12:42:59;;;;;;;1.27;0.70;;;18.50;99.90;;;;;;5022181;28;20187;-78
2022/12/03 12:45:31;;;;;;;2.50;0.90;;;18.50;99.90;;;;;;5011156;28;20213;-77
2022/12/03 12:48:09;;;;;;;2.53;0.70;;;18.50;99.90;;;;;;5023579;28;20190;-77
2022/12/03 12:50:40;;;;;;;4.05;0.80;;;18.50;99.90;;;;;;5014642;28;20186;-77
2022/12/03 12:53:18;;;;;;;2.92;0.80;;;18.50;99.90;;;;;;5019192;28;20220;-77
2022/12/03 12:55:55;;;;;;;3.80;1.17;;;18.40;99.90;;;;;;5022406;28;20699;-77
2022/12/03 12:58:29;;;;;;;7.32;1.42;;;18.40;99.90;;;;;;5005898;28;20186;-77
2022/12/03 13:01:02;;;;;;;3.58;1.17;;;18.30;99.90;;;;;;5025371;28;20210;-77
2022/12/03 13:03:38;;;;;;;8.88;3.10;;;18.30;99.90;;;;;;5006570;28;20193;-77
2022/12/03 13:06:12;;;;;;;7.03;3.50;;;18.30;99.90;;;;;;5013519;28;20200;-77
2022/12/03 13:08:45;;;;;;;6.90;3.50;;;18.20;99.90;;;;;;5018315;28;20186;-77
2022/12/03 13:11:33;;;;;;;7.47;4.40;;;18.20;99.90;;;;;;5022127;28;20638;-77
2022/12/03 13:14:13;;;;;;;10.15;5.47;;;18.20;99.90;;;;;;5013340;28;20653;-77
2022/12/03 13:16:45;;;;;;;9.65;5.40;;;18.20;99.90;;;;;;5010810;28;20191;-77
2022/12/03 13:19:23;;;;;;;10.73;6.40;;;18.20;99.90;;;;;;5013229;28;20187;-77
2022/12/03 13:21:55;;;;;;;10.82;6.20;;;18.20;99.90;;;;;;5013936;28;20215;-77
2022/12/03 13:24:32;;;;;;;13.20;6.57;;;18.10;99.90;;;;;;5035183;28;20312;-77
2022/12/03 13:27:10;;;;;;;17.15;7.22;;;18.10;99.90;;;;;;5037210;28;20190;-77
2022/12/03 13:29:43;;;;;;;10.35;6.45;;;18.10;99.90;;;;;;5035040;28;20186;-77
2022/12/03 13:32:15;;;;;;;11.38;6.63;;;18.10;99.90;;;;;;5019882;28;20194;-77
2022/12/03 13:34:46;;;;;;;10.98;6.18;;;18.10;99.90;;;;;;5033896;28;20191;-78
2022/12/03 13:37:21;;;;;;;11.13;6.07;;;18.10;99.90;;;;;;5031137;28;20789;-77
2022/12/03 13:39:53;;;;;;;7.63;5.43;;;18.10;99.90;;;;;;5027539;28;20194;-77